createdAt,value
2018-12-06T00:02:30.892Z,100069.17
2018-12-06T00:05:01.957Z,100066.34
2018-12-06T00:07:35.016Z,100069.25
2018-12-06T00:10:07.928Z,100067.80
2018-12-06T00:12:38.878Z,100062.67
2018-12-06T00:15:24.137Z,100068.47
2018-12-06T00:17:55.046Z,100075.59
2018-12-06T00:20:26.075Z,100060.95
2018-12-06T00:22:57.000Z,100053.27
2018-12-06T00:25:31.076Z,100046.26
2018-12-06T00:28:12.777Z,100051.77
2018-12-06T00:30:44.589Z,100047.31
2018-12-06T00:33:15.104Z,100044.78
2018-12-06T00:35:53.443Z,99877.45
2018-12-06T00:38:26.063Z,100027.77
2018-12-06T00:41:02.278Z,100024.83
2018-12-06T00:43:33.269Z,100017.57
2018-12-06T00:46:03.882Z,100022.36
2018-12-06T00:48:34.446Z,100016.30
2018-12-06T00:51:05.003Z,100017.45
2018-12-06T00:53:35.509Z,100007.20
2018-12-06T00:56:06.017Z,100009.33
2018-12-06T00:58:36.643Z,100006.10
2018-12-06T01:01:07.375Z,100004.52
2018-12-06T01:03:37.946Z,100004.73
2018-12-06T01:06:08.504Z,100010.19
2018-12-06T01:08:39.075Z,99997.72
2018-12-06T01:11:09.583Z,99997.33
2018-12-06T01:13:40.570Z,99991.14
2018-12-06T01:16:11.121Z,99988.61
2018-12-06T01:18:41.721Z,99977.80
2018-12-06T01:21:12.243Z,99969.00
2018-12-06T01:23:42.854Z,99966.22
2018-12-06T01:26:13.759Z,99960.55
2018-12-06T01:28:44.387Z,99971.95
2018-12-06T01:31:16.317Z,99968.22
2018-12-06T01:33:48.416Z,99954.96
2018-12-06T01:36:19.349Z,99947.19
2018-12-06T01:38:50.310Z,99948.19
2018-12-06T01:41:21.485Z,99942.44
2018-12-06T01:43:54.446Z,99940.52
2018-12-06T01:46:25.546Z,99941.63
2018-12-06T01:48:56.464Z,99937.84
2018-12-06T01:51:27.403Z,99935.01
2018-12-06T01:54:00.359Z,99929.59
2018-12-06T01:56:31.488Z,99919.73
2018-12-06T01:59:04.443Z,99909.64
2018-12-06T02:01:37.473Z,99904.84
2018-12-06T02:04:09.177Z,99906.80
2018-12-06T02:06:39.863Z,99899.68
2018-12-06T02:09:10.940Z,99906.45
2018-12-06T02:11:41.600Z,99894.43
2018-12-06T02:14:14.384Z,99891.34
2018-12-06T02:16:48.212Z,99888.02
2018-12-06T02:19:21.484Z,99890.98
2018-12-06T02:21:53.319Z,99890.39
2018-12-06T02:24:26.675Z,99880.44
2018-12-06T02:26:59.574Z,99881.42
2018-12-06T02:29:35.643Z,99869.48
2018-12-06T02:32:07.577Z,99867.30
2018-12-06T02:34:38.555Z,99864.30
2018-12-06T02:37:11.590Z,99850.48
2018-12-06T02:39:42.678Z,99849.18
2018-12-06T02:42:13.580Z,99850.06
2018-12-06T02:44:44.652Z,99851.38
2018-12-06T02:47:17.751Z,99843.94
2018-12-06T02:49:48.789Z,99837.93
2018-12-06T02:52:20.096Z,99823.59
2018-12-06T02:54:50.633Z,99830.47
2018-12-06T02:57:23.615Z,99833.01
2018-12-06T02:59:54.697Z,99819.67
2018-12-06T03:02:28.422Z,99824.39
2018-12-06T03:05:08.102Z,99830.49
2018-12-06T03:07:40.983Z,99830.94
2018-12-06T03:10:11.876Z,99820.52
2018-12-06T03:12:54.545Z,99826.96
2018-12-06T03:18:13.870Z,99820.88
2018-12-06T03:20:44.388Z,99816.64
2018-12-06T03:23:15.598Z,99816.20
2018-12-06T03:25:46.152Z,99807.91
2018-12-06T03:28:19.848Z,99804.92
2018-12-06T03:30:52.929Z,99800.53
2018-12-06T03:33:23.983Z,99794.52
2018-12-06T03:36:02.860Z,99795.34
2018-12-06T03:38:34.959Z,99799.75
2018-12-06T03:41:05.491Z,99793.72
2018-12-06T03:43:36.072Z,99789.38
2018-12-06T03:46:06.820Z,99783.30
2018-12-06T03:48:37.686Z,99787.11
2018-12-06T03:51:08.444Z,99789.78
2018-12-06T03:53:39.363Z,99789.38
2018-12-06T03:56:10.727Z,99787.60
2018-12-06T03:58:41.234Z,99774.15
2018-12-06T04:01:11.783Z,99774.99
2018-12-06T04:03:42.307Z,99778.44
2018-12-06T04:06:12.890Z,99780.20
2018-12-06T04:08:43.398Z,99780.54
2018-12-06T04:11:13.921Z,99782.69
2018-12-06T04:13:44.531Z,99786.09
2018-12-06T04:16:15.059Z,99782.56
2018-12-06T04:18:45.726Z,99778.92
2018-12-06T04:21:16.443Z,99781.25
2018-12-06T04:23:46.955Z,99780.00
2018-12-06T04:26:18.116Z,99774.34
2018-12-06T04:28:48.652Z,99775.68
2018-12-06T04:31:19.854Z,99776.89
2018-12-06T04:33:52.183Z,99779.44
2018-12-06T04:36:23.217Z,99774.02
2018-12-06T04:38:54.136Z,99777.77
2018-12-06T04:41:27.160Z,99780.84
2018-12-06T04:43:58.040Z,99778.34
2018-12-06T04:46:30.358Z,99776.32
2018-12-06T04:49:03.109Z,99765.97
2018-12-06T04:51:35.299Z,99768.82
2018-12-06T04:54:07.315Z,99754.77
2018-12-06T04:56:38.939Z,99751.75
2018-12-06T04:59:12.172Z,99750.09
2018-12-06T05:01:43.068Z,99746.18
2018-12-06T05:04:14.327Z,99745.25
2018-12-06T05:06:47.279Z,99738.42
2018-12-06T05:09:20.444Z,99734.62
2018-12-06T05:11:51.306Z,99728.20
2018-12-06T05:14:22.535Z,99719.52
2018-12-06T05:16:55.249Z,99734.23
2018-12-06T05:19:26.273Z,99728.95
2018-12-06T05:21:58.325Z,99732.90
2018-12-06T05:24:30.422Z,99719.47
2018-12-06T05:27:02.437Z,99722.50
2018-12-06T05:29:34.776Z,99727.36
2018-12-06T05:32:05.160Z,99745.52
2018-12-06T05:34:36.175Z,99749.63
2018-12-06T05:37:07.091Z,99748.31
2018-12-06T05:39:37.614Z,99739.31
2018-12-06T05:42:08.193Z,99733.44
2018-12-06T05:44:38.787Z,99750.75
2018-12-06T05:47:09.378Z,99739.02
2018-12-06T05:49:40.231Z,99745.44
2018-12-06T05:52:11.043Z,99739.89
2018-12-06T05:54:44.333Z,99739.37
2018-12-06T05:57:15.459Z,99738.23
2018-12-06T05:59:46.413Z,99730.48
2018-12-06T06:02:19.857Z,99726.68
2018-12-06T06:04:50.490Z,99718.59
2018-12-06T06:07:21.611Z,99717.80
2018-12-06T06:09:52.539Z,99704.84
2018-12-06T06:12:25.514Z,99712.14
2018-12-06T06:14:56.688Z,99716.41
2018-12-06T06:17:27.729Z,99721.19
2018-12-06T06:20:00.784Z,99733.73
2018-12-06T06:22:31.703Z,99720.27
2018-12-06T06:25:05.123Z,99708.19
2018-12-06T06:27:35.813Z,99727.23
2018-12-06T06:30:06.645Z,99745.80
2018-12-06T06:32:37.419Z,99759.88
2018-12-06T06:35:11.269Z,99606.16
2018-12-06T06:37:44.538Z,99784.14
2018-12-06T06:40:33.760Z,99775.84
2018-12-06T06:43:07.632Z,99779.95
2018-12-06T06:48:29.664Z,99788.86
2018-12-06T06:51:02.817Z,99767.27
2018-12-06T06:53:35.683Z,99767.23
2018-12-06T06:56:07.110Z,99770.34
2018-12-06T06:58:38.867Z,99773.08
2018-12-06T07:01:10.743Z,99761.88
2018-12-06T07:03:41.903Z,99763.64
2018-12-06T07:06:28.950Z,99767.92
2018-12-06T07:09:01.536Z,99782.69
2018-12-06T07:11:32.224Z,99795.72
2018-12-06T07:14:02.847Z,99785.25
2018-12-06T07:16:34.541Z,99803.84
2018-12-06T07:19:04.867Z,99623.74
2018-12-06T07:21:35.383Z,99794.73
2018-12-06T07:24:05.927Z,99796.40
2018-12-06T07:26:36.517Z,99801.73
2018-12-06T07:29:07.281Z,99804.83
2018-12-06T07:31:37.579Z,99803.95
2018-12-06T07:34:08.236Z,99796.15
2018-12-06T07:36:38.850Z,99804.92
2018-12-06T07:39:09.744Z,99808.69
2018-12-06T07:41:40.307Z,99821.97
2018-12-06T07:44:10.934Z,99821.12
2018-12-06T07:46:42.245Z,99816.09
2018-12-06T07:49:14.820Z,99819.48
2018-12-06T07:51:48.367Z,99809.70
2018-12-06T07:54:18.981Z,99822.92
2018-12-06T07:56:50.724Z,99822.40
2018-12-06T07:59:23.108Z,99816.83
2018-12-06T08:01:54.049Z,99819.86
2018-12-06T08:04:24.884Z,99817.65
2018-12-06T08:06:56.150Z,99811.78
2018-12-06T08:09:29.278Z,99810.67
2018-12-06T08:12:01.344Z,99814.53
2018-12-06T08:14:31.958Z,99820.39
2018-12-06T08:17:04.019Z,99824.26
2018-12-06T08:19:34.924Z,99816.25
2018-12-06T08:22:07.007Z,99820.00
2018-12-06T08:24:37.689Z,99830.61
2018-12-06T08:27:08.285Z,99827.80
2018-12-06T08:29:38.878Z,99840.23
2018-12-06T08:32:09.481Z,99833.02
2018-12-06T08:34:39.825Z,99839.80
2018-12-06T08:37:10.573Z,99838.64
2018-12-06T08:39:41.171Z,99842.64
2018-12-06T08:42:11.776Z,99839.01
2018-12-06T08:44:42.428Z,99842.81
2018-12-06T08:47:13.011Z,99841.66
2018-12-06T08:49:47.231Z,99843.47
2018-12-06T08:52:18.572Z,99851.55
2018-12-06T08:54:51.418Z,99844.88
2018-12-06T08:57:24.599Z,99844.73
2018-12-06T08:59:55.268Z,99848.91
2018-12-06T09:02:26.165Z,99845.52
2018-12-06T09:04:57.294Z,99848.22
2018-12-06T09:07:30.599Z,99847.80
2018-12-06T09:10:01.417Z,99844.10
2018-12-06T09:12:32.002Z,99845.81
2018-12-06T09:15:02.392Z,99845.05
2018-12-06T09:17:33.420Z,99845.23
2018-12-06T09:20:05.612Z,99846.98
2018-12-06T09:22:36.385Z,99845.20
2018-12-06T09:25:07.372Z,99843.01
2018-12-06T09:27:38.236Z,99846.65
2018-12-06T09:30:10.584Z,99854.11
2018-12-06T09:32:41.302Z,99845.45
2018-12-06T09:35:12.328Z,99849.79
2018-12-06T09:37:50.293Z,99844.52
2018-12-06T09:40:32.171Z,99838.09
2018-12-06T09:43:04.539Z,99836.30
2018-12-06T09:45:36.079Z,99844.45
2018-12-06T09:48:23.771Z,99839.42
2018-12-06T09:50:57.602Z,99838.83
2018-12-06T09:53:28.585Z,99834.36
2018-12-06T09:55:59.655Z,99828.25
2018-12-06T09:58:31.539Z,99819.44
2018-12-06T10:01:03.924Z,99822.36
2018-12-06T10:03:34.427Z,99812.68
2018-12-06T10:06:05.146Z,99815.42
2018-12-06T10:08:35.650Z,99824.17
2018-12-06T10:11:06.873Z,99819.94
2018-12-06T10:13:40.470Z,99813.03
2018-12-06T10:16:11.755Z,99802.35
2018-12-06T10:18:44.722Z,99811.88
2018-12-06T10:21:15.452Z,99804.88
2018-12-06T10:23:46.794Z,99799.45
2018-12-06T10:29:23.128Z,99807.70
2018-12-06T10:31:54.709Z,99815.45
2018-12-06T10:34:26.356Z,99820.92
2018-12-06T10:36:59.654Z,99808.50
2018-12-06T10:39:30.280Z,99812.33
2018-12-06T10:42:00.908Z,99809.32
2018-12-06T10:44:32.155Z,99811.22
2018-12-06T10:47:04.896Z,99812.64
2018-12-06T10:49:35.776Z,99815.30
2018-12-06T10:52:08.902Z,99809.42
2018-12-06T10:54:39.728Z,99805.25
2018-12-06T10:57:10.842Z,99799.34
2018-12-06T10:59:43.624Z,99807.86
2018-12-06T11:02:19.922Z,99806.50
2018-12-06T11:04:51.615Z,99809.02
2018-12-06T11:07:22.532Z,99809.13
2018-12-06T11:09:53.248Z,99804.17
2018-12-06T11:12:23.948Z,99799.15
2018-12-06T11:14:54.735Z,99802.95
2018-12-06T11:17:25.391Z,99811.00
2018-12-06T11:19:55.959Z,99806.98
2018-12-06T11:22:27.447Z,99803.09
2018-12-06T11:24:58.141Z,99802.25
2018-12-06T11:27:28.538Z,99803.17
2018-12-06T11:29:59.679Z,99800.27
2018-12-06T11:32:30.411Z,99807.56
2018-12-06T11:35:00.836Z,99802.48
2018-12-06T11:37:31.510Z,99803.76
2018-12-06T11:40:02.715Z,99811.13
2018-12-06T11:42:33.336Z,99816.91
2018-12-06T11:45:04.320Z,99817.70
2018-12-06T11:47:37.126Z,99824.66
2018-12-06T11:50:09.155Z,99816.32
2018-12-06T11:52:41.239Z,99814.00
2018-12-06T11:55:12.410Z,99809.50
2018-12-06T11:57:51.061Z,99815.72
2018-12-06T12:00:31.619Z,99818.99
2018-12-06T12:03:03.743Z,99817.52
2018-12-06T12:05:49.089Z,99808.60
2018-12-06T12:08:22.287Z,99804.28
2018-12-06T12:10:53.952Z,99810.48
2018-12-06T12:13:26.308Z,99818.69
2018-12-06T12:15:57.046Z,99819.00
2018-12-06T12:18:28.025Z,99816.51
2018-12-06T12:20:58.823Z,99815.61
2018-12-06T12:23:29.161Z,99815.63
2018-12-06T12:26:00.217Z,99821.97
2018-12-06T12:28:31.371Z,99822.69
2018-12-06T12:31:04.786Z,99820.02
2018-12-06T12:33:36.323Z,99816.11
2018-12-06T12:36:13.081Z,99820.10
2018-12-06T12:38:46.512Z,99819.21
2018-12-06T12:41:19.479Z,99818.14
2018-12-06T12:43:50.323Z,99816.32
2018-12-06T12:46:21.014Z,99814.47
2018-12-06T12:48:51.856Z,99815.50
2018-12-06T12:51:22.557Z,99823.63
2018-12-06T12:53:53.263Z,99826.41
2018-12-06T12:56:23.947Z,99830.39
2018-12-06T12:58:57.609Z,99828.34
2018-12-06T13:01:30.413Z,99826.48
2018-12-06T13:04:01.573Z,99816.70
2018-12-06T13:06:32.344Z,99821.16
2018-12-06T13:09:07.771Z,99812.04
2018-12-06T13:11:38.615Z,99814.64
2018-12-06T13:14:11.497Z,99822.48
2018-12-06T13:16:44.332Z,99815.55
2018-12-06T13:19:15.043Z,99807.98
2018-12-06T13:21:45.950Z,99800.70
2018-12-06T13:24:16.483Z,99800.91
2018-12-06T13:26:47.255Z,99799.42
2018-12-06T13:29:17.975Z,99801.94
2018-12-06T13:31:48.567Z,99790.70
2018-12-06T13:34:19.577Z,99789.55
2018-12-06T13:36:50.030Z,99787.20
2018-12-06T13:39:20.674Z,99790.80
2018-12-06T13:41:51.470Z,99786.61
2018-12-06T13:44:22.068Z,99776.28
2018-12-06T13:46:52.591Z,99778.62
2018-12-06T13:49:24.575Z,99777.77
2018-12-06T13:51:58.891Z,99772.38
2018-12-06T13:54:32.267Z,99775.75
2018-12-06T13:57:09.570Z,99770.95
2018-12-06T13:59:40.275Z,99772.27
2018-12-06T14:02:10.959Z,99760.38
2018-12-06T14:04:41.587Z,99769.95
2018-12-06T14:07:12.306Z,99772.01
2018-12-06T14:09:42.639Z,99780.26
2018-12-06T14:12:13.482Z,99773.80
2018-12-06T14:14:44.213Z,99776.17
2018-12-06T14:17:14.829Z,99783.87
2018-12-06T14:19:45.828Z,99776.03
2018-12-06T14:22:18.848Z,99778.80
2018-12-06T14:24:49.512Z,99778.78
2018-12-06T14:27:22.901Z,99785.64
2018-12-06T14:29:53.787Z,99782.84
2018-12-06T14:32:25.021Z,99781.94
2018-12-06T14:34:55.808Z,99795.84
2018-12-06T14:37:29.095Z,99801.55
2018-12-06T14:39:59.786Z,99798.67
2018-12-06T14:42:30.650Z,99808.55
2018-12-06T14:45:04.467Z,99814.23
2018-12-06T14:47:36.177Z,99812.52
2018-12-06T14:50:11.919Z,99806.53
2018-12-06T14:53:04.866Z,99802.78
2018-12-06T14:55:35.746Z,99815.94
2018-12-06T14:58:07.898Z,99822.39
2018-12-06T15:00:39.032Z,99827.13
2018-12-06T15:03:12.895Z,99826.53
2018-12-06T15:05:45.088Z,99821.57
2018-12-06T15:08:16.154Z,99828.24
2018-12-06T15:10:58.714Z,99833.87
2018-12-06T15:13:29.507Z,99822.43
2018-12-06T15:16:00.415Z,99819.00
2018-12-06T15:18:32.171Z,99814.70
2018-12-06T15:21:04.433Z,99810.42
2018-12-06T15:23:36.053Z,99810.41
2018-12-06T15:26:09.732Z,99816.15
2018-12-06T15:28:43.202Z,99809.26
2018-12-06T15:31:16.186Z,99814.61
2018-12-06T15:33:47.023Z,99819.23
2018-12-06T15:36:18.319Z,99824.30
2018-12-06T15:38:51.102Z,99815.53
2018-12-06T15:41:22.227Z,99822.19
2018-12-06T15:43:53.259Z,99815.92
2018-12-06T15:46:24.293Z,99821.47
2018-12-06T15:48:55.043Z,99821.02
2018-12-06T15:51:26.027Z,99821.75
2018-12-06T15:53:56.643Z,99827.03
2018-12-06T15:56:27.310Z,99826.47
2018-12-06T15:58:59.471Z,99826.84
2018-12-06T16:01:33.137Z,99839.00
2018-12-06T16:04:04.988Z,99835.36
2018-12-06T16:06:36.343Z,99837.20
2018-12-06T16:09:09.716Z,99839.09
2018-12-06T16:11:42.412Z,99846.70
2018-12-06T16:14:13.310Z,99844.25
2018-12-06T16:16:46.219Z,99836.20
2018-12-06T16:19:17.327Z,99838.97
2018-12-06T16:21:49.383Z,99835.66
2018-12-06T16:24:20.347Z,99841.53
2018-12-06T16:26:52.484Z,99842.25
2018-12-06T16:29:23.416Z,99836.41
2018-12-06T16:31:55.586Z,99834.58
2018-12-06T16:34:26.418Z,99837.02
2018-12-06T16:36:57.369Z,99836.80
2018-12-06T16:39:27.660Z,99840.42
2018-12-06T16:41:57.973Z,99835.34
2018-12-06T16:44:28.751Z,99838.06
2018-12-06T16:46:59.587Z,99846.43
2018-12-06T16:49:31.008Z,99841.03
2018-12-06T16:52:01.978Z,99835.77
2018-12-06T16:54:32.552Z,99836.91
2018-12-06T16:57:05.534Z,99827.93
2018-12-06T16:59:36.606Z,99829.41
2018-12-06T17:02:09.635Z,99835.77
2018-12-06T17:04:42.600Z,99837.22
2018-12-06T17:07:13.649Z,99837.94
2018-12-06T17:09:45.488Z,99844.41
2018-12-06T17:12:18.007Z,99843.03
2018-12-06T17:14:48.672Z,99842.92
2018-12-06T17:17:21.773Z,99841.72
2018-12-06T17:19:53.266Z,99841.43
2018-12-06T17:22:25.975Z,99843.20
2018-12-06T17:24:56.616Z,99850.42
2018-12-06T17:27:27.740Z,99843.62
2018-12-06T17:29:58.909Z,99846.58
2018-12-06T17:32:31.753Z,99845.23
2018-12-06T17:35:05.326Z,99846.50
2018-12-06T17:37:36.827Z,99840.89
2018-12-06T17:40:10.239Z,99837.54
2018-12-06T17:42:42.744Z,99839.92
2018-12-06T17:45:14.706Z,99840.97
2018-12-06T17:47:52.027Z,99841.78
2018-12-06T17:50:26.605Z,99838.92
2018-12-06T17:53:10.445Z,99837.95
2018-12-06T17:55:52.219Z,99845.39
2018-12-06T17:58:26.050Z,99846.05
2018-12-06T18:00:56.722Z,99847.47
2018-12-06T18:03:29.835Z,99844.14
2018-12-06T18:06:00.763Z,99847.42
2018-12-06T18:08:31.784Z,99847.54
2018-12-06T18:11:03.074Z,99850.48
2018-12-06T18:13:33.622Z,99840.36
2018-12-06T18:16:05.886Z,99842.75
2018-12-06T18:18:40.423Z,99843.92
2018-12-06T18:21:10.611Z,99844.72
2018-12-06T18:23:43.928Z,99845.94
2018-12-06T18:26:14.795Z,99845.75
2018-12-06T18:28:48.543Z,99849.98
2018-12-06T18:31:22.076Z,99850.87
2018-12-06T18:33:55.065Z,99854.67
2018-12-06T18:36:26.917Z,99849.76
2018-12-06T18:38:59.046Z,99848.55
2018-12-06T18:41:30.118Z,99852.40
2018-12-06T18:44:03.283Z,99848.72
2018-12-06T18:46:36.032Z,99844.28
2018-12-06T18:49:08.952Z,99844.69
2018-12-06T18:51:42.100Z,99849.64
2018-12-06T18:54:14.988Z,99858.53
2018-12-06T18:56:45.484Z,99862.44
2018-12-06T18:59:16.102Z,99849.48
2018-12-06T19:01:47.545Z,99859.17
2018-12-06T19:04:20.115Z,99861.33
2018-12-06T19:06:51.679Z,99692.20
2018-12-06T19:09:24.653Z,99852.78
2018-12-06T19:11:55.499Z,99846.45
2018-12-06T19:14:26.127Z,99843.03
2018-12-06T19:17:01.886Z,99841.50
2018-12-06T19:19:32.923Z,99837.19
2018-12-06T19:22:04.932Z,99851.95
2018-12-06T19:24:37.081Z,99847.15
2018-12-06T19:27:09.453Z,99850.17
2018-12-06T19:29:42.859Z,99851.56
2018-12-06T19:32:16.215Z,99839.75
2018-12-06T19:34:49.775Z,99843.57
2018-12-06T19:37:28.025Z,99838.11
2018-12-06T19:40:33.096Z,99834.92
2018-12-06T19:43:10.684Z,99829.08
2018-12-06T19:45:42.975Z,99835.91
2018-12-06T19:48:13.581Z,99826.37
2018-12-06T19:50:44.143Z,99828.40
2018-12-06T19:53:18.738Z,99837.81
2018-12-06T19:55:51.938Z,99831.77
2018-12-06T19:58:24.367Z,99831.11
2018-12-06T20:00:56.218Z,99834.69
2018-12-06T20:03:33.611Z,99836.42
2018-12-06T20:06:07.032Z,99836.97
2018-12-06T20:08:45.789Z,99836.52
2018-12-06T20:11:18.472Z,99839.77
2018-12-06T20:13:49.725Z,99843.11
2018-12-06T20:16:20.352Z,99850.48
2018-12-06T20:18:51.063Z,99848.44
2018-12-06T20:21:23.021Z,99834.84
2018-12-06T20:23:59.509Z,99841.13
2018-12-06T20:26:31.874Z,99839.43
2018-12-06T20:29:02.616Z,99832.00
2018-12-06T20:31:34.638Z,99831.75
2018-12-06T20:34:12.283Z,99830.20
2018-12-06T20:36:44.881Z,99823.36
2018-12-06T20:39:18.818Z,99820.45
2018-12-06T20:41:56.388Z,99821.11
2018-12-06T20:44:29.769Z,99810.06
2018-12-06T20:47:02.899Z,99810.75
2018-12-06T20:49:33.601Z,99810.55
2018-12-06T20:52:07.387Z,99807.39
2018-12-06T20:54:46.617Z,99810.82
2018-12-06T20:57:21.708Z,99806.45
2018-12-06T20:59:56.379Z,99809.78
2018-12-06T21:02:33.328Z,99811.20
2018-12-06T21:05:07.440Z,99815.00
2018-12-06T21:07:43.305Z,99812.03
2018-12-06T21:13:04.941Z,99795.93
2018-12-06T21:15:36.249Z,99785.31
2018-12-06T21:18:06.942Z,99789.41
2018-12-06T21:20:50.333Z,99785.94
2018-12-06T21:23:24.078Z,99798.02
2018-12-06T21:25:56.730Z,99795.50
2018-12-06T21:28:29.959Z,99786.64
2018-12-06T21:31:00.943Z,99786.81
2018-12-06T21:33:31.735Z,99774.51
2018-12-06T21:36:04.002Z,99779.66
2018-12-06T21:38:37.901Z,99775.84
2018-12-06T21:41:12.242Z,99779.22
2018-12-06T21:43:44.194Z,99774.73
2018-12-06T21:46:14.871Z,99776.47
2018-12-06T21:48:46.175Z,99774.18
2018-12-06T21:51:21.782Z,99771.73
2018-12-06T21:53:52.866Z,99772.64
2018-12-06T21:56:43.582Z,99783.92
2018-12-06T21:59:15.784Z,99767.95
2018-12-06T22:01:46.901Z,99759.27
2018-12-06T22:04:18.970Z,99767.15
2018-12-06T22:06:49.965Z,99767.43
2018-12-06T22:09:24.241Z,99768.22
2018-12-06T22:11:57.506Z,99759.10
2018-12-06T22:14:28.302Z,99755.33
2018-12-06T22:17:02.099Z,99739.96
2018-12-06T22:19:33.622Z,99738.90
2018-12-06T22:22:11.569Z,99737.23
2018-12-06T22:24:45.602Z,99732.45
2018-12-06T22:27:16.323Z,99744.42
2018-12-06T22:29:49.139Z,99742.82
2018-12-06T22:32:21.415Z,99746.63
2018-12-06T22:34:55.268Z,99755.29
2018-12-06T22:37:29.197Z,99751.27
2018-12-06T22:40:02.119Z,99753.28
2018-12-06T22:42:36.502Z,99754.20
2018-12-06T22:48:15.779Z,99756.97
2018-12-06T22:50:49.761Z,99748.87
2018-12-06T22:53:21.244Z,99745.05
2018-12-06T22:55:54.890Z,99741.09
2018-12-06T22:58:28.464Z,99744.34
2018-12-06T23:01:02.391Z,99749.75
2018-12-06T23:03:33.785Z,99728.67
2018-12-06T23:06:05.847Z,99722.37
2018-12-06T23:08:36.982Z,99738.12
2018-12-06T23:11:13.359Z,99727.46
2018-12-06T23:13:46.231Z,99740.78
2018-12-06T23:16:17.466Z,99725.66
2018-12-06T23:18:54.177Z,99729.44
2018-12-06T23:21:24.940Z,99732.50
2018-12-06T23:23:55.718Z,99722.37
2018-12-06T23:26:33.441Z,99711.83
2018-12-06T23:29:05.505Z,99716.06
2018-12-06T23:31:37.633Z,99725.00
2018-12-06T23:36:47.366Z,99701.92
2018-12-06T23:39:20.508Z,99699.49
2018-12-06T23:41:51.782Z,99695.88
2018-12-06T23:44:24.324Z,99691.70
2018-12-06T23:46:56.224Z,99690.51
2018-12-06T23:49:32.108Z,99691.41
2018-12-06T23:52:09.138Z,99691.30
2018-12-06T23:54:40.569Z,99691.29
2018-12-06T23:57:13.623Z,99682.19
2018-12-06T23:59:44.307Z,99680.23
